sensor_id;sensor_type;location;lat;lon;timestamp;pressure;altitude;pressure_sealevel;temperature
19666;BMP180;9980;51.020;7.772;2023-05-29T00:00:48;97931.00;;;18.90
19666;BMP180;9980;51.020;7.772;2023-05-29T00:03:15;97931.00;;;18.90
19666;BMP180;9980;51.020;7.772;2023-05-29T00:05:42;97933.00;;;18.90
19666;BMP180;9980;51.020;7.772;2023-05-29T00:08:09;97930.00;;;18.90
19666;BMP180;9980;51.020;7.772;2023-05-29T00:10:36;97924.00;;;18.80
19666;BMP180;9980;51.020;7.772;2023-05-29T00:13:04;97925.00;;;18.80
19666;BMP180;9980;51.020;7.772;2023-05-29T00:15:33;97922.00;;;18.80
19666;BMP180;9980;51.020;7.772;2023-05-29T00:18:00;97927.00;;;18.70
19666;BMP180;9980;51.020;7.772;2023-05-29T00:20:28;97930.00;;;18.70
19666;BMP180;9980;51.020;7.772;2023-05-29T00:22:55;97941.00;;;18.70
19666;BMP180;9980;51.020;7.772;2023-05-29T00:25:22;97931.00;;;18.60
19666;BMP180;9980;51.020;7.772;2023-05-29T00:27:49;97942.00;;;18.60
19666;BMP180;9980;51.020;7.772;2023-05-29T00:30:16;97929.00;;;18.60
19666;BMP180;9980;51.020;7.772;2023-05-29T00:32:43;97936.00;;;18.60
19666;BMP180;9980;51.020;7.772;2023-05-29T00:35:10;97924.00;;;18.60
19666;BMP180;9980;51.020;7.772;2023-05-29T00:37:37;97924.00;;;18.50
19666;BMP180;9980;51.020;7.772;2023-05-29T00:40:05;97909.00;;;18.50
19666;BMP180;9980;51.020;7.772;2023-05-29T00:42:33;97935.00;;;18.50
19666;BMP180;9980;51.020;7.772;2023-05-29T00:44:59;97938.00;;;18.40
19666;BMP180;9980;51.020;7.772;2023-05-29T00:47:27;97936.00;;;18.40
19666;BMP180;9980;51.020;7.772;2023-05-29T00:49:57;97946.00;;;18.40
19666;BMP180;9980;51.020;7.772;2023-05-29T00:52:25;97947.00;;;18.30
19666;BMP180;9980;51.020;7.772;2023-05-29T00:54:54;97933.00;;;18.30
19666;BMP180;9980;51.020;7.772;2023-05-29T00:57:22;97937.00;;;18.30
19666;BMP180;9980;51.020;7.772;2023-05-29T00:59:50;97929.00;;;18.20
19666;BMP180;9980;51.020;7.772;2023-05-29T01:02:19;97931.00;;;18.20
19666;BMP180;9980;51.020;7.772;2023-05-29T01:04:48;97930.00;;;18.20
19666;BMP180;9980;51.020;7.772;2023-05-29T01:07:15;97930.00;;;18.10
19666;BMP180;9980;51.020;7.772;2023-05-29T01:09:42;97930.00;;;18.10
19666;BMP180;9980;51.020;7.772;2023-05-29T01:12:51;97939.00;;;18.10
19666;BMP180;9980;51.020;7.772;2023-05-29T01:21:07;97940.00;;;17.90
19666;BMP180;9980;51.020;7.772;2023-05-29T01:24:13;97932.00;;;17.90
19666;BMP180;9980;51.020;7.772;2023-05-29T01:27:05;97944.00;;;17.90
19666;BMP180;9980;51.020;7.772;2023-05-29T01:29:37;97943.00;;;17.80
19666;BMP180;9980;51.020;7.772;2023-05-29T01:32:06;97938.00;;;17.80
19666;BMP180;9980;51.020;7.772;2023-05-29T01:34:33;97927.00;;;17.80
19666;BMP180;9980;51.020;7.772;2023-05-29T01:37:00;97933.00;;;17.80
19666;BMP180;9980;51.020;7.772;2023-05-29T01:39:30;97922.00;;;17.80
19666;BMP180;9980;51.020;7.772;2023-05-29T01:41:59;97933.00;;;17.70
19666;BMP180;9980;51.020;7.772;2023-05-29T01:44:28;97924.00;;;17.70
19666;BMP180;9980;51.020;7.772;2023-05-29T01:46:56;97924.00;;;17.70
19666;BMP180;9980;51.020;7.772;2023-05-29T01:49:24;97935.00;;;17.70
19666;BMP180;9980;51.020;7.772;2023-05-29T01:51:52;97940.00;;;17.60
19666;BMP180;9980;51.020;7.772;2023-05-29T01:54:20;97925.00;;;17.60
19666;BMP180;9980;51.020;7.772;2023-05-29T01:56:49;97935.00;;;17.50
19666;BMP180;9980;51.020;7.772;2023-05-29T01:59:17;97937.00;;;17.50
19666;BMP180;9980;51.020;7.772;2023-05-29T02:01:44;97938.00;;;17.50
19666;BMP180;9980;51.020;7.772;2023-05-29T02:04:11;97946.00;;;17.40
19666;BMP180;9980;51.020;7.772;2023-05-29T02:06:37;97951.00;;;17.40
19666;BMP180;9980;51.020;7.772;2023-05-29T02:09:04;97947.00;;;17.40
19666;BMP180;9980;51.020;7.772;2023-05-29T02:11:32;97950.00;;;17.30
19666;BMP180;9980;51.020;7.772;2023-05-29T02:13:59;97961.00;;;17.30
19666;BMP180;9980;51.020;7.772;2023-05-29T02:16:30;97946.00;;;17.30
19666;BMP180;9980;51.020;7.772;2023-05-29T02:19:01;97949.00;;;17.30
19666;BMP180;9980;51.020;7.772;2023-05-29T02:21:28;97954.00;;;17.30
19666;BMP180;9980;51.020;7.772;2023-05-29T02:23:55;97955.00;;;17.20
19666;BMP180;9980;51.020;7.772;2023-05-29T02:26:22;97962.00;;;17.20
19666;BMP180;9980;51.020;7.772;2023-05-29T02:28:50;97951.00;;;17.20
19666;BMP180;9980;51.020;7.772;2023-05-29T02:31:17;97954.00;;;17.20
19666;BMP180;9980;51.020;7.772;2023-05-29T02:33:44;97950.00;;;17.10
19666;BMP180;9980;51.020;7.772;2023-05-29T02:36:11;97954.00;;;17.10
19666;BMP180;9980;51.020;7.772;2023-05-29T02:38:38;97951.00;;;17.10
19666;BMP180;9980;51.020;7.772;2023-05-29T02:41:06;97953.00;;;17.10
19666;BMP180;9980;51.020;7.772;2023-05-29T02:43:33;97966.00;;;17.00
19666;BMP180;9980;51.020;7.772;2023-05-29T02:46:00;97984.00;;;17.00
19666;BMP180;9980;51.020;7.772;2023-05-29T02:48:27;97975.00;;;17.00
19666;BMP180;9980;51.020;7.772;2023-05-29T02:50:55;97978.00;;;16.90
19666;BMP180;9980;51.020;7.772;2023-05-29T02:53:23;97986.00;;;16.90
19666;BMP180;9980;51.020;7.772;2023-05-29T02:55:50;97994.00;;;16.90
19666;BMP180;9980;51.020;7.772;2023-05-29T02:58:17;97979.00;;;16.80
19666;BMP180;9980;51.020;7.772;2023-05-29T03:00:47;97985.00;;;16.80
19666;BMP180;9980;51.020;7.772;2023-05-29T03:03:15;97984.00;;;16.80
19666;BMP180;9980;51.020;7.772;2023-05-29T03:05:42;97983.00;;;16.70
19666;BMP180;9980;51.020;7.772;2023-05-29T03:08:09;97981.00;;;16.70
19666;BMP180;9980;51.020;7.772;2023-05-29T03:10:37;97995.00;;;16.70
19666;BMP180;9980;51.020;7.772;2023-05-29T03:13:03;97995.00;;;16.70
19666;BMP180;9980;51.020;7.772;2023-05-29T03:15:32;97990.00;;;16.60
19666;BMP180;9980;51.020;7.772;2023-05-29T03:17:59;97994.00;;;16.60
19666;BMP180;9980;51.020;7.772;2023-05-29T03:20:29;98003.00;;;16.60
19666;BMP180;9980;51.020;7.772;2023-05-29T03:22:58;98011.00;;;16.50
19666;BMP180;9980;51.020;7.772;2023-05-29T03:25:24;97999.00;;;16.50
19666;BMP180;9980;51.020;7.772;2023-05-29T03:27:52;97997.00;;;16.50
19666;BMP180;9980;51.020;7.772;2023-05-29T03:30:20;98006.00;;;16.40
19666;BMP180;9980;51.020;7.772;2023-05-29T03:32:49;97998.00;;;16.40
19666;BMP180;9980;51.020;7.772;2023-05-29T03:35:17;98015.00;;;16.30
19666;BMP180;9980;51.020;7.772;2023-05-29T03:37:44;98004.00;;;16.30
19666;BMP180;9980;51.020;7.772;2023-05-29T03:40:12;98006.00;;;16.20
19666;BMP180;9980;51.020;7.772;2023-05-29T03:42:39;98001.00;;;16.20
19666;BMP180;9980;51.020;7.772;2023-05-29T03:45:07;98002.00;;;16.20
19666;BMP180;9980;51.020;7.772;2023-05-29T03:47:36;97992.00;;;16.20
19666;BMP180;9980;51.020;7.772;2023-05-29T03:50:03;98012.00;;;16.10
19666;BMP180;9980;51.020;7.772;2023-05-29T03:52:34;98007.00;;;16.10
19666;BMP180;9980;51.020;7.772;2023-05-29T03:55:02;98001.00;;;16.10
19666;BMP180;9980;51.020;7.772;2023-05-29T03:57:29;98022.00;;;16.10
19666;BMP180;9980;51.020;7.772;2023-05-29T03:59:56;98005.00;;;16.00
19666;BMP180;9980;51.020;7.772;2023-05-29T04:02:23;98027.00;;;16.00
19666;BMP180;9980;51.020;7.772;2023-05-29T04:04:50;98008.00;;;16.00
19666;BMP180;9980;51.020;7.772;2023-05-29T04:07:19;98015.00;;;16.00
19666;BMP180;9980;51.020;7.772;2023-05-29T04:09:47;98003.00;;;16.00
19666;BMP180;9980;51.020;7.772;2023-05-29T04:12:14;98025.00;;;16.00
19666;BMP180;9980;51.020;7.772;2023-05-29T04:14:42;98012.00;;;16.00
19666;BMP180;9980;51.020;7.772;2023-05-29T04:17:09;98026.00;;;16.00
19666;BMP180;9980;51.020;7.772;2023-05-29T04:19:37;98030.00;;;16.00
19666;BMP180;9980;51.020;7.772;2023-05-29T04:22:04;98024.00;;;15.90
19666;BMP180;9980;51.020;7.772;2023-05-29T04:24:33;98036.00;;;16.00
19666;BMP180;9980;51.020;7.772;2023-05-29T04:27:00;98027.00;;;16.00
19666;BMP180;9980;51.020;7.772;2023-05-29T04:29:29;98032.00;;;16.00
19666;BMP180;9980;51.020;7.772;2023-05-29T04:31:56;98025.00;;;16.00
19666;BMP180;9980;51.020;7.772;2023-05-29T04:34:23;98035.00;;;16.00
19666;BMP180;9980;51.020;7.772;2023-05-29T04:36:50;98034.00;;;16.00
19666;BMP180;9980;51.020;7.772;2023-05-29T04:39:17;98039.00;;;16.00
19666;BMP180;9980;51.020;7.772;2023-05-29T04:41:44;98043.00;;;16.00
19666;BMP180;9980;51.020;7.772;2023-05-29T04:44:15;98035.00;;;16.00
19666;BMP180;9980;51.020;7.772;2023-05-29T04:46:45;98044.00;;;16.10
19666;BMP180;9980;51.020;7.772;2023-05-29T04:49:14;98042.00;;;16.10
19666;BMP180;9980;51.020;7.772;2023-05-29T04:51:41;98042.00;;;16.10
19666;BMP180;9980;51.020;7.772;2023-05-29T04:54:10;98032.00;;;16.10
19666;BMP180;9980;51.020;7.772;2023-05-29T04:56:39;98046.00;;;16.20
19666;BMP180;9980;51.020;7.772;2023-05-29T04:59:12;98041.00;;;16.20
19666;BMP180;9980;51.020;7.772;2023-05-29T05:01:39;98052.00;;;16.20
19666;BMP180;9980;51.020;7.772;2023-05-29T05:04:06;98053.00;;;16.30
19666;BMP180;9980;51.020;7.772;2023-05-29T05:06:33;98049.00;;;16.30
19666;BMP180;9980;51.020;7.772;2023-05-29T05:09:00;98039.00;;;16.40
19666;BMP180;9980;51.020;7.772;2023-05-29T05:11:29;98048.00;;;16.40
19666;BMP180;9980;51.020;7.772;2023-05-29T05:13:56;98054.00;;;16.50
19666;BMP180;9980;51.020;7.772;2023-05-29T05:16:23;98060.00;;;16.50
19666;BMP180;9980;51.020;7.772;2023-05-29T05:18:50;98057.00;;;16.60
19666;BMP180;9980;51.020;7.772;2023-05-29T05:21:18;98060.00;;;16.60
19666;BMP180;9980;51.020;7.772;2023-05-29T05:23:46;98060.00;;;16.60
19666;BMP180;9980;51.020;7.772;2023-05-29T05:26:25;98057.00;;;16.60
19666;BMP180;9980;51.020;7.772;2023-05-29T05:28:53;98065.00;;;16.60
19666;BMP180;9980;51.020;7.772;2023-05-29T05:31:23;98064.00;;;16.70
19666;BMP180;9980;51.020;7.772;2023-05-29T05:33:51;98058.00;;;16.70
19666;BMP180;9980;51.020;7.772;2023-05-29T05:36:18;98058.00;;;16.70
19666;BMP180;9980;51.020;7.772;2023-05-29T05:38:46;98076.00;;;16.70
19666;BMP180;9980;51.020;7.772;2023-05-29T05:41:13;98070.00;;;16.70
19666;BMP180;9980;51.020;7.772;2023-05-29T05:43:40;98062.00;;;16.80
19666;BMP180;9980;51.020;7.772;2023-05-29T05:46:28;98076.00;;;16.80
19666;BMP180;9980;51.020;7.772;2023-05-29T05:48:55;98056.00;;;16.90
19666;BMP180;9980;51.020;7.772;2023-05-29T05:51:25;98069.00;;;16.90
19666;BMP180;9980;51.020;7.772;2023-05-29T05:53:52;98068.00;;;17.00
19666;BMP180;9980;51.020;7.772;2023-05-29T05:56:19;98076.00;;;17.00
19666;BMP180;9980;51.020;7.772;2023-05-29T05:58:46;98069.00;;;17.10
19666;BMP180;9980;51.020;7.772;2023-05-29T06:01:17;98064.00;;;17.20
19666;BMP180;9980;51.020;7.772;2023-05-29T06:03:45;98068.00;;;17.20
19666;BMP180;9980;51.020;7.772;2023-05-29T06:06:12;98070.00;;;17.20
19666;BMP180;9980;51.020;7.772;2023-05-29T06:08:41;98075.00;;;17.30
19666;BMP180;9980;51.020;7.772;2023-05-29T06:11:09;98077.00;;;17.30
19666;BMP180;9980;51.020;7.772;2023-05-29T06:13:38;98080.00;;;17.40
19666;BMP180;9980;51.020;7.772;2023-05-29T06:16:10;98091.00;;;17.40
19666;BMP180;9980;51.020;7.772;2023-05-29T06:18:37;98087.00;;;17.50
19666;BMP180;9980;51.020;7.772;2023-05-29T06:21:04;98087.00;;;17.50
19666;BMP180;9980;51.020;7.772;2023-05-29T06:23:33;98083.00;;;17.60
19666;BMP180;9980;51.020;7.772;2023-05-29T06:26:01;98076.00;;;17.60
19666;BMP180;9980;51.020;7.772;2023-05-29T06:28:29;98088.00;;;17.60
19666;BMP180;9980;51.020;7.772;2023-05-29T06:30:57;98095.00;;;17.70
19666;BMP180;9980;51.020;7.772;2023-05-29T06:33:24;98082.00;;;17.70
19666;BMP180;9980;51.020;7.772;2023-05-29T06:35:51;98103.00;;;17.80
19666;BMP180;9980;51.020;7.772;2023-05-29T06:38:18;98078.00;;;17.90
19666;BMP180;9980;51.020;7.772;2023-05-29T06:40:45;98082.00;;;17.90
19666;BMP180;9980;51.020;7.772;2023-05-29T06:43:12;98092.00;;;18.00
19666;BMP180;9980;51.020;7.772;2023-05-29T06:45:45;98086.00;;;18.00
19666;BMP180;9980;51.020;7.772;2023-05-29T06:48:12;98086.00;;;18.10
19666;BMP180;9980;51.020;7.772;2023-05-29T06:50:40;98077.00;;;18.10
19666;BMP180;9980;51.020;7.772;2023-05-29T06:53:37;98094.00;;;18.20
19666;BMP180;9980;51.020;7.772;2023-05-29T06:56:05;98089.00;;;18.30
19666;BMP180;9980;51.020;7.772;2023-05-29T06:58:34;98088.00;;;18.40
19666;BMP180;9980;51.020;7.772;2023-05-29T07:01:01;98094.00;;;18.50
19666;BMP180;9980;51.020;7.772;2023-05-29T07:03:33;98099.00;;;18.50
19666;BMP180;9980;51.020;7.772;2023-05-29T07:06:03;98106.00;;;18.60
19666;BMP180;9980;51.020;7.772;2023-05-29T07:08:31;98095.00;;;18.70
19666;BMP180;9980;51.020;7.772;2023-05-29T07:10:58;98085.00;;;18.70
19666;BMP180;9980;51.020;7.772;2023-05-29T07:13:25;98087.00;;;18.80
19666;BMP180;9980;51.020;7.772;2023-05-29T07:15:53;98083.00;;;18.90
19666;BMP180;9980;51.020;7.772;2023-05-29T07:18:26;98077.00;;;19.00
19666;BMP180;9980;51.020;7.772;2023-05-29T07:20:56;98098.00;;;19.00
19666;BMP180;9980;51.020;7.772;2023-05-29T07:23:24;98083.00;;;19.10
19666;BMP180;9980;51.020;7.772;2023-05-29T07:25:54;98087.00;;;19.20
19666;BMP180;9980;51.020;7.772;2023-05-29T07:28:23;98087.00;;;19.30
19666;BMP180;9980;51.020;7.772;2023-05-29T07:30:51;98090.00;;;19.40
19666;BMP180;9980;51.020;7.772;2023-05-29T07:33:19;98076.00;;;19.50
19666;BMP180;9980;51.020;7.772;2023-05-29T07:35:46;98077.00;;;19.60
19666;BMP180;9980;51.020;7.772;2023-05-29T07:38:13;98094.00;;;19.70
19666;BMP180;9980;51.020;7.772;2023-05-29T07:40:42;98094.00;;;19.80
19666;BMP180;9980;51.020;7.772;2023-05-29T07:43:11;98090.00;;;19.90
19666;BMP180;9980;51.020;7.772;2023-05-29T07:45:47;98092.00;;;20.00
19666;BMP180;9980;51.020;7.772;2023-05-29T07:48:14;98086.00;;;20.10
19666;BMP180;9980;51.020;7.772;2023-05-29T07:50:42;98100.00;;;20.20
19666;BMP180;9980;51.020;7.772;2023-05-29T07:53:09;98080.00;;;20.30
19666;BMP180;9980;51.020;7.772;2023-05-29T07:55:38;98096.00;;;20.40
19666;BMP180;9980;51.020;7.772;2023-05-29T07:58:05;98095.00;;;20.50
19666;BMP180;9980;51.020;7.772;2023-05-29T08:00:31;98103.00;;;20.60
19666;BMP180;9980;51.020;7.772;2023-05-29T08:03:01;98107.00;;;20.70
19666;BMP180;9980;51.020;7.772;2023-05-29T08:05:30;98098.00;;;20.70
19666;BMP180;9980;51.020;7.772;2023-05-29T08:08:05;98110.00;;;20.80
19666;BMP180;9980;51.020;7.772;2023-05-29T08:10:34;98113.00;;;21.00
19666;BMP180;9980;51.020;7.772;2023-05-29T08:13:02;98097.00;;;21.10
19666;BMP180;9980;51.020;7.772;2023-05-29T08:15:31;98106.00;;;21.20
19666;BMP180;9980;51.020;7.772;2023-05-29T08:17:59;98094.00;;;21.30
19666;BMP180;9980;51.020;7.772;2023-05-29T08:20:27;98105.00;;;21.40
19666;BMP180;9980;51.020;7.772;2023-05-29T08:22:54;98095.00;;;21.50
19666;BMP180;9980;51.020;7.772;2023-05-29T08:25:21;98090.00;;;21.60
19666;BMP180;9980;51.020;7.772;2023-05-29T08:27:48;98097.00;;;21.70
19666;BMP180;9980;51.020;7.772;2023-05-29T08:30:15;98096.00;;;21.80
19666;BMP180;9980;51.020;7.772;2023-05-29T08:32:42;98089.00;;;21.90
19666;BMP180;9980;51.020;7.772;2023-05-29T08:35:09;98098.00;;;22.00
19666;BMP180;9980;51.020;7.772;2023-05-29T08:37:36;98091.00;;;22.10
19666;BMP180;9980;51.020;7.772;2023-05-29T08:40:04;98108.00;;;22.20
19666;BMP180;9980;51.020;7.772;2023-05-29T08:42:46;98104.00;;;22.30
19666;BMP180;9980;51.020;7.772;2023-05-29T08:45:14;98092.00;;;22.40
19666;BMP180;9980;51.020;7.772;2023-05-29T08:47:43;98096.00;;;22.50
19666;BMP180;9980;51.020;7.772;2023-05-29T08:50:15;98105.00;;;22.60
19666;BMP180;9980;51.020;7.772;2023-05-29T08:52:43;98101.00;;;22.70
19666;BMP180;9980;51.020;7.772;2023-05-29T08:55:10;98106.00;;;22.80
19666;BMP180;9980;51.020;7.772;2023-05-29T08:57:38;98108.00;;;22.90
19666;BMP180;9980;51.020;7.772;2023-05-29T09:00:06;98106.00;;;23.00
19666;BMP180;9980;51.020;7.772;2023-05-29T09:02:40;98105.00;;;23.10
19666;BMP180;9980;51.020;7.772;2023-05-29T09:05:07;98104.00;;;23.20
19666;BMP180;9980;51.020;7.772;2023-05-29T09:07:36;98095.00;;;23.30
19666;BMP180;9980;51.020;7.772;2023-05-29T09:10:09;98094.00;;;23.40
19666;BMP180;9980;51.020;7.772;2023-05-29T09:12:36;98088.00;;;23.50
19666;BMP180;9980;51.020;7.772;2023-05-29T09:15:18;98089.00;;;23.50
19666;BMP180;9980;51.020;7.772;2023-05-29T09:17:54;98098.00;;;23.60
19666;BMP180;9980;51.020;7.772;2023-05-29T09:20:22;98100.00;;;23.80
19666;BMP180;9980;51.020;7.772;2023-05-29T09:23:01;98107.00;;;23.90
19666;BMP180;9980;51.020;7.772;2023-05-29T09:25:34;98103.00;;;23.90
19666;BMP180;9980;51.020;7.772;2023-05-29T09:28:04;98098.00;;;24.00
19666;BMP180;9980;51.020;7.772;2023-05-29T09:30:43;98116.00;;;24.10
19666;BMP180;9980;51.020;7.772;2023-05-29T09:33:12;98105.00;;;24.20
19666;BMP180;9980;51.020;7.772;2023-05-29T09:35:47;98109.00;;;24.30
19666;BMP180;9980;51.020;7.772;2023-05-29T09:38:16;98102.00;;;24.40
19666;BMP180;9980;51.020;7.772;2023-05-29T09:41:04;98099.00;;;24.50
19666;BMP180;9980;51.020;7.772;2023-05-29T09:43:32;98107.00;;;24.60
19666;BMP180;9980;51.020;7.772;2023-05-29T09:46:01;98099.00;;;24.70
19666;BMP180;9980;51.020;7.772;2023-05-29T09:48:30;98106.00;;;24.80
19666;BMP180;9980;51.020;7.772;2023-05-29T09:50:57;98107.00;;;24.80
19666;BMP180;9980;51.020;7.772;2023-05-29T09:53:27;98103.00;;;24.90
19666;BMP180;9980;51.020;7.772;2023-05-29T09:55:56;98112.00;;;25.00
19666;BMP180;9980;51.020;7.772;2023-05-29T09:58:24;98112.00;;;25.00
19666;BMP180;9980;51.020;7.772;2023-05-29T10:00:52;98109.00;;;25.00
19666;BMP180;9980;51.020;7.772;2023-05-29T10:03:20;98101.00;;;25.10
19666;BMP180;9980;51.020;7.772;2023-05-29T10:05:54;98109.00;;;25.10
19666;BMP180;9980;51.020;7.772;2023-05-29T10:08:23;98113.00;;;25.20
19666;BMP180;9980;51.020;7.772;2023-05-29T10:10:59;98103.00;;;25.20
19666;BMP180;9980;51.020;7.772;2023-05-29T10:13:38;98107.00;;;25.20
19666;BMP180;9980;51.020;7.772;2023-05-29T10:16:10;98115.00;;;25.30
19666;BMP180;9980;51.020;7.772;2023-05-29T10:18:43;98104.00;;;25.40
19666;BMP180;9980;51.020;7.772;2023-05-29T10:21:17;98108.00;;;25.50
19666;BMP180;9980;51.020;7.772;2023-05-29T10:23:50;98110.00;;;25.60
19666;BMP180;9980;51.020;7.772;2023-05-29T10:26:27;98103.00;;;25.70
19666;BMP180;9980;51.020;7.772;2023-05-29T10:29:19;98102.00;;;25.70
19666;BMP180;9980;51.020;7.772;2023-05-29T10:32:12;98122.00;;;25.80
19666;BMP180;9980;51.020;7.772;2023-05-29T10:35:17;98106.00;;;25.80
19666;BMP180;9980;51.020;7.772;2023-05-29T10:38:17;98105.00;;;25.90
19666;BMP180;9980;51.020;7.772;2023-05-29T10:40:45;98106.00;;;26.00
19666;BMP180;9980;51.020;7.772;2023-05-29T10:43:42;98105.00;;;26.00
19666;BMP180;9980;51.020;7.772;2023-05-29T10:46:11;98103.00;;;26.20
19666;BMP180;9980;51.020;7.772;2023-05-29T10:48:40;98102.00;;;26.20
19666;BMP180;9980;51.020;7.772;2023-05-29T10:51:08;98104.00;;;26.30
19666;BMP180;9980;51.020;7.772;2023-05-29T10:53:36;98111.00;;;26.30
19666;BMP180;9980;51.020;7.772;2023-05-29T10:56:10;98100.00;;;26.40
19666;BMP180;9980;51.020;7.772;2023-05-29T10:58:41;98112.00;;;26.40
19666;BMP180;9980;51.020;7.772;2023-05-29T11:01:08;98109.00;;;26.50
19666;BMP180;9980;51.020;7.772;2023-05-29T11:03:35;98115.00;;;26.50
19666;BMP180;9980;51.020;7.772;2023-05-29T11:06:20;98112.00;;;26.50
19666;BMP180;9980;51.020;7.772;2023-05-29T11:08:53;98120.00;;;26.60
19666;BMP180;9980;51.020;7.772;2023-05-29T11:11:33;98124.00;;;26.70
19666;BMP180;9980;51.020;7.772;2023-05-29T11:14:07;98104.00;;;26.70
19666;BMP180;9980;51.020;7.772;2023-05-29T11:19:06;98118.00;;;26.80
19666;BMP180;9980;51.020;7.772;2023-05-29T11:21:57;98106.00;;;26.80
19666;BMP180;9980;51.020;7.772;2023-05-29T11:24:28;98107.00;;;26.80
19666;BMP180;9980;51.020;7.772;2023-05-29T11:26:57;98125.00;;;26.90
19666;BMP180;9980;51.020;7.772;2023-05-29T11:29:28;98114.00;;;26.90
19666;BMP180;9980;51.020;7.772;2023-05-29T11:32:06;98113.00;;;26.80
19666;BMP180;9980;51.020;7.772;2023-05-29T11:34:40;98111.00;;;26.90
19666;BMP180;9980;51.020;7.772;2023-05-29T11:37:08;98108.00;;;26.90
19666;BMP180;9980;51.020;7.772;2023-05-29T11:39:38;98098.00;;;26.80
19666;BMP180;9980;51.020;7.772;2023-05-29T11:42:07;98112.00;;;26.80
19666;BMP180;9980;51.020;7.772;2023-05-29T11:44:34;98108.00;;;26.90
19666;BMP180;9980;51.020;7.772;2023-05-29T11:47:06;98100.00;;;26.80
19666;BMP180;9980;51.020;7.772;2023-05-29T11:49:36;98113.00;;;26.80
19666;BMP180;9980;51.020;7.772;2023-05-29T11:52:12;98102.00;;;26.80
19666;BMP180;9980;51.020;7.772;2023-05-29T11:54:44;98104.00;;;26.80
19666;BMP180;9980;51.020;7.772;2023-05-29T11:57:22;98098.00;;;26.80
19666;BMP180;9980;51.020;7.772;2023-05-29T11:59:52;98105.00;;;26.90
19666;BMP180;9980;51.020;7.772;2023-05-29T12:02:25;98106.00;;;27.00
19666;BMP180;9980;51.020;7.772;2023-05-29T12:05:03;98094.00;;;27.00
19666;BMP180;9980;51.020;7.772;2023-05-29T12:07:31;98093.00;;;27.00
19666;BMP180;9980;51.020;7.772;2023-05-29T12:10:13;98093.00;;;27.00
19666;BMP180;9980;51.020;7.772;2023-05-29T12:12:42;98104.00;;;27.10
19666;BMP180;9980;51.020;7.772;2023-05-29T12:15:09;98098.00;;;27.10
19666;BMP180;9980;51.020;7.772;2023-05-29T12:17:37;98105.00;;;27.20
19666;BMP180;9980;51.020;7.772;2023-05-29T12:20:05;98106.00;;;27.20
19666;BMP180;9980;51.020;7.772;2023-05-29T12:22:37;98094.00;;;27.20
19666;BMP180;9980;51.020;7.772;2023-05-29T12:25:16;98101.00;;;27.10
19666;BMP180;9980;51.020;7.772;2023-05-29T12:27:46;98105.00;;;27.20
19666;BMP180;9980;51.020;7.772;2023-05-29T12:30:20;98092.00;;;27.20
19666;BMP180;9980;51.020;7.772;2023-05-29T12:32:58;98096.00;;;27.20
19666;BMP180;9980;51.020;7.772;2023-05-29T12:35:29;98091.00;;;27.20
19666;BMP180;9980;51.020;7.772;2023-05-29T12:38:02;98084.00;;;27.30
19666;BMP180;9980;51.020;7.772;2023-05-29T12:40:32;98088.00;;;27.30
19666;BMP180;9980;51.020;7.772;2023-05-29T12:43:07;98082.00;;;27.30
19666;BMP180;9980;51.020;7.772;2023-05-29T12:45:36;98084.00;;;27.30
19666;BMP180;9980;51.020;7.772;2023-05-29T12:48:05;98095.00;;;27.30
19666;BMP180;9980;51.020;7.772;2023-05-29T12:50:39;98089.00;;;27.30
19666;BMP180;9980;51.020;7.772;2023-05-29T12:53:12;98107.00;;;27.30
19666;BMP180;9980;51.020;7.772;2023-05-29T12:55:41;98104.00;;;27.30
19666;BMP180;9980;51.020;7.772;2023-05-29T12:58:14;98098.00;;;27.30
19666;BMP180;9980;51.020;7.772;2023-05-29T13:00:43;98106.00;;;27.30
19666;BMP180;9980;51.020;7.772;2023-05-29T13:03:12;98100.00;;;27.30
19666;BMP180;9980;51.020;7.772;2023-05-29T13:05:39;98108.00;;;27.30
19666;BMP180;9980;51.020;7.772;2023-05-29T13:08:07;98123.00;;;27.30
19666;BMP180;9980;51.020;7.772;2023-05-29T13:10:35;98111.00;;;27.30
19666;BMP180;9980;51.020;7.772;2023-05-29T13:13:03;98108.00;;;27.30
19666;BMP180;9980;51.020;7.772;2023-05-29T13:15:30;98113.00;;;27.30
19666;BMP180;9980;51.020;7.772;2023-05-29T13:18:00;98125.00;;;27.30
19666;BMP180;9980;51.020;7.772;2023-05-29T13:20:27;98115.00;;;27.30
19666;BMP180;9980;51.020;7.772;2023-05-29T13:22:54;98119.00;;;27.30
19666;BMP180;9980;51.020;7.772;2023-05-29T13:25:21;98111.00;;;27.30
19666;BMP180;9980;51.020;7.772;2023-05-29T13:27:50;98118.00;;;27.40
19666;BMP180;9980;51.020;7.772;2023-05-29T13:30:17;98109.00;;;27.40
19666;BMP180;9980;51.020;7.772;2023-05-29T13:32:45;98102.00;;;27.50
19666;BMP180;9980;51.020;7.772;2023-05-29T13:35:12;98106.00;;;27.50
19666;BMP180;9980;51.020;7.772;2023-05-29T13:37:39;98119.00;;;27.50
19666;BMP180;9980;51.020;7.772;2023-05-29T13:40:07;98103.00;;;27.50
19666;BMP180;9980;51.020;7.772;2023-05-29T13:42:38;98098.00;;;27.40
19666;BMP180;9980;51.020;7.772;2023-05-29T13:45:07;98106.00;;;27.40
19666;BMP180;9980;51.020;7.772;2023-05-29T13:47:35;98123.00;;;27.40
19666;BMP180;9980;51.020;7.772;2023-05-29T13:50:03;98101.00;;;27.40
19666;BMP180;9980;51.020;7.772;2023-05-29T13:52:30;98101.00;;;27.40
19666;BMP180;9980;51.020;7.772;2023-05-29T13:54:57;98084.00;;;27.40
19666;BMP180;9980;51.020;7.772;2023-05-29T13:57:26;98087.00;;;27.40
19666;BMP180;9980;51.020;7.772;2023-05-29T13:59:54;98084.00;;;27.40
19666;BMP180;9980;51.020;7.772;2023-05-29T14:02:22;98084.00;;;27.40
19666;BMP180;9980;51.020;7.772;2023-05-29T14:04:49;98087.00;;;27.50
19666;BMP180;9980;51.020;7.772;2023-05-29T14:07:17;98085.00;;;27.50
19666;BMP180;9980;51.020;7.772;2023-05-29T14:09:44;98072.00;;;27.50
19666;BMP180;9980;51.020;7.772;2023-05-29T14:12:11;98075.00;;;27.50
19666;BMP180;9980;51.020;7.772;2023-05-29T14:14:38;98072.00;;;27.50
19666;BMP180;9980;51.020;7.772;2023-05-29T14:17:05;98090.00;;;27.50
19666;BMP180;9980;51.020;7.772;2023-05-29T14:19:32;98094.00;;;27.50
19666;BMP180;9980;51.020;7.772;2023-05-29T14:21:59;98073.00;;;27.50
19666;BMP180;9980;51.020;7.772;2023-05-29T14:24:27;98105.00;;;27.50
19666;BMP180;9980;51.020;7.772;2023-05-29T14:26:55;98094.00;;;27.40
19666;BMP180;9980;51.020;7.772;2023-05-29T14:29:22;98072.00;;;27.40
19666;BMP180;9980;51.020;7.772;2023-05-29T14:31:48;98073.00;;;27.50
19666;BMP180;9980;51.020;7.772;2023-05-29T14:34:16;98078.00;;;27.50
19666;BMP180;9980;51.020;7.772;2023-05-29T14:36:43;98084.00;;;27.40
19666;BMP180;9980;51.020;7.772;2023-05-29T14:39:12;98081.00;;;27.40
19666;BMP180;9980;51.020;7.772;2023-05-29T14:41:41;98087.00;;;27.40
19666;BMP180;9980;51.020;7.772;2023-05-29T14:44:08;98088.00;;;27.50